RRR1 EGVN-LFMN
Flight info
| Callsign | RRR1 |
|---|---|
| Flight time | 1h 40m |
| Altitude | 41000 |
| Route | CONKO CONKO L18 MID UL612 OGULO DCT NINIS DCT NISAR NISAR8R |
| Aircraft | B738/M-SDE2E3FGHIRWXY/LB1 |
Departure
| Time | 2026-04-25 15:56 |
|---|---|
| Airport | RAF Brize Norton (EGVN) |
Arrival
| Time | 2026-04-25 17:36 |
|---|---|
| Airport | Nice-Côte d'Azur Airport (LFMN) |
| Time | Latitude | Longitude | Altitude | Speed | Heading |
|---|---|---|---|---|---|
| 2026-04-25 15:20 | 51.75636 | -1.57861 | 263 ft | 0 kts | 316° |
| 2026-04-25 15:46 | 51.75629 | -1.57851 | 263 ft | 4 kts | 316° |
| 2026-04-25 15:46 | 51.75613 | -1.57825 | 263 ft | 2 kts | 316° |
| 2026-04-25 15:46 | 51.75595 | -1.57796 | 263 ft | 4 kts | 312° |
| 2026-04-25 15:47 | 51.75577 | -1.57762 | 263 ft | 4 kts | 306° |
| 2026-04-25 15:47 | 51.75563 | -1.57726 | 263 ft | 4 kts | 294° |
| 2026-04-25 15:47 | 51.75558 | -1.57703 | 263 ft | 1 kts | 287° |
| 2026-04-25 15:47 | 51.75557 | -1.57700 | 263 ft | 0 kts | 287° |
| 2026-04-25 15:51 | 51.75557 | -1.57701 | 263 ft | 0 kts | 285° |
| 2026-04-25 15:51 | 51.75557 | -1.57702 | 263 ft | 0 kts | 279° |
| 2026-04-25 15:51 | 51.75553 | -1.57707 | 263 ft | 1 kts | 217° |
| 2026-04-25 15:51 | 51.75525 | -1.57731 | 263 ft | 9 kts | 206° |
| 2026-04-25 15:52 | 51.75484 | -1.57763 | 263 ft | 13 kts | 206° |
| 2026-04-25 15:52 | 51.75386 | -1.57848 | 263 ft | 19 kts | 210° |
| 2026-04-25 15:52 | 51.75260 | -1.57952 | 263 ft | 22 kts | 206° |
| 2026-04-25 15:52 | 51.75120 | -1.58069 | 264 ft | 24 kts | 211° |
| 2026-04-25 15:53 | 51.75002 | -1.58258 | 263 ft | 25 kts | 253° |
| 2026-04-25 15:53 | 51.74946 | -1.58542 | 264 ft | 28 kts | 252° |
| 2026-04-25 15:53 | 51.74885 | -1.58846 | 265 ft | 30 kts | 252° |
| 2026-04-25 15:53 | 51.74820 | -1.59177 | 264 ft | 32 kts | 253° |
| 2026-04-25 15:54 | 51.74814 | -1.59210 | 264 ft | 33 kts | 253° |
| 2026-04-25 15:54 | 51.74806 | -1.59254 | 263 ft | 33 kts | 253° |
| 2026-04-25 15:54 | 51.74739 | -1.59623 | 260 ft | 36 kts | 254° |
| 2026-04-25 15:54 | 51.74673 | -1.59986 | 262 ft | 32 kts | 252° |
| 2026-04-25 15:55 | 51.74604 | -1.60289 | 264 ft | 13 kts | 260° |
| 2026-04-25 15:55 | 51.74623 | -1.60331 | 264 ft | 2 kts | 33° |
| 2026-04-25 15:55 | 51.74632 | -1.60288 | 264 ft | 9 kts | 74° |
| 2026-04-25 15:55 | 51.74693 | -1.59954 | 262 ft | 79 kts | 73° |
| 2026-04-25 15:56 | 51.74940 | -1.58559 | 406 ft | 165 kts | 76° |
| 2026-04-25 15:56 | 51.75305 | -1.56601 | 1339 ft | 190 kts | 70° |
| 2026-04-25 15:56 | 51.75793 | -1.54622 | 2680 ft | 196 kts | 62° |
| 2026-04-25 15:56 | 51.76731 | -1.52812 | 2919 ft | 231 kts | 35° |
| 2026-04-25 15:57 | 51.78331 | -1.52044 | 3168 ft | 254 kts | 355° |
| 2026-04-25 15:57 | 51.79976 | -1.53088 | 3781 ft | 261 kts | 319° |
| 2026-04-25 15:57 | 51.80936 | -1.55496 | 4520 ft | 263 kts | 285° |
| 2026-04-25 15:57 | 51.80929 | -1.58428 | 5273 ft | 265 kts | 259° |
| 2026-04-25 15:58 | 51.80530 | -1.61358 | 5934 ft | 270 kts | 258° |
| 2026-04-25 15:58 | 51.80118 | -1.64338 | 6596 ft | 273 kts | 258° |
| 2026-04-25 15:58 | 51.79736 | -1.67346 | 7444 ft | 273 kts | 259° |
| 2026-04-25 15:58 | 51.79614 | -1.68371 | 7810 ft | 275 kts | 259° |
| 2026-04-25 15:59 | 51.79601 | -1.68480 | 7854 ft | 275 kts | 259° |
| 2026-04-25 15:59 | 51.79251 | -1.71553 | 8925 ft | 280 kts | 260° |
| 2026-04-25 15:59 | 51.78915 | -1.74671 | 10046 ft | 283 kts | 261° |
| 2026-04-25 16:00 | 51.78585 | -1.77861 | 10877 ft | 296 kts | 261° |
| 2026-04-25 16:00 | 51.78476 | -1.78932 | 10986 ft | 306 kts | 261° |
| 2026-04-25 16:00 | 51.77857 | -1.85037 | 11806 ft | 341 kts | 261° |
| 2026-04-25 16:00 | 51.77403 | -1.88764 | 12772 ft | 345 kts | 253° |
| 2026-04-25 16:01 | 51.76280 | -1.92184 | 13810 ft | 350 kts | 232° |
| 2026-04-25 16:01 | 51.74458 | -1.94826 | 14738 ft | 356 kts | 214° |
| 2026-04-25 16:01 | 51.72253 | -1.96701 | 15612 ft | 361 kts | 207° |
| 2026-04-25 16:01 | 51.72231 | -1.96718 | 15617 ft | 361 kts | 207° |
| 2026-04-25 16:02 | 51.70402 | -1.98113 | 16286 ft | 365 kts | 207° |
| 2026-04-25 16:02 | 51.69120 | -1.99092 | 16740 ft | 368 kts | 207° |
| 2026-04-25 16:02 | 51.66793 | -2.00906 | 17579 ft | 373 kts | 208° |
| 2026-04-25 16:02 | 51.64452 | -2.02764 | 18417 ft | 377 kts | 207° |
| 2026-04-25 16:03 | 51.61950 | -2.04123 | 19114 ft | 386 kts | 191° |
| 2026-04-25 16:03 | 51.59249 | -2.04179 | 19839 ft | 394 kts | 173° |
| 2026-04-25 16:03 | 51.56633 | -2.02928 | 20536 ft | 403 kts | 156° |
| 2026-04-25 16:03 | 51.54325 | -2.00376 | 21184 ft | 412 kts | 137° |
| 2026-04-25 16:04 | 51.52519 | -1.96720 | 21802 ft | 420 kts | 119° |
| 2026-04-25 16:04 | 51.51314 | -1.92442 | 22483 ft | 424 kts | 113° |
| 2026-04-25 16:04 | 51.50187 | -1.88044 | 23150 ft | 428 kts | 112° |
| 2026-04-25 16:04 | 51.49058 | -1.83578 | 23761 ft | 433 kts | 112° |
| 2026-04-25 16:05 | 51.47913 | -1.79095 | 24278 ft | 437 kts | 112° |
| 2026-04-25 16:05 | 51.46738 | -1.74561 | 24822 ft | 440 kts | 113° |
| 2026-04-25 16:05 | 51.44329 | -1.65441 | 25869 ft | 447 kts | 113° |
| 2026-04-25 16:06 | 51.43102 | -1.60844 | 26364 ft | 450 kts | 113° |
| 2026-04-25 16:06 | 51.41862 | -1.56213 | 26846 ft | 454 kts | 114° |
| 2026-04-25 16:06 | 51.40625 | -1.51604 | 27317 ft | 457 kts | 114° |
| 2026-04-25 16:06 | 51.39348 | -1.46854 | 27796 ft | 460 kts | 114° |
| 2026-04-25 16:07 | 51.38093 | -1.42191 | 28248 ft | 463 kts | 114° |
| 2026-04-25 16:07 | 51.37663 | -1.40594 | 28410 ft | 464 kts | 114° |
| 2026-04-25 16:07 | 51.35507 | -1.32609 | 29176 ft | 469 kts | 114° |
| 2026-04-25 16:07 | 51.34229 | -1.27886 | 29581 ft | 472 kts | 114° |
| 2026-04-25 16:08 | 51.32913 | -1.23030 | 29976 ft | 475 kts | 114° |
| 2026-04-25 16:08 | 51.31565 | -1.18204 | 30363 ft | 478 kts | 117° |
| 2026-04-25 16:08 | 51.29854 | -1.13633 | 30678 ft | 479 kts | 127° |
| 2026-04-25 16:08 | 51.27811 | -1.09436 | 31061 ft | 479 kts | 129° |
| 2026-04-25 16:09 | 51.26696 | -1.07174 | 31258 ft | 480 kts | 129° |
| 2026-04-25 16:09 | 51.25159 | -1.04001 | 31513 ft | 481 kts | 129° |
| 2026-04-25 16:09 | 51.23126 | -0.99744 | 31883 ft | 482 kts | 128° |
| 2026-04-25 16:09 | 51.21110 | -0.95487 | 32357 ft | 480 kts | 128° |
| 2026-04-25 16:10 | 51.19107 | -0.91247 | 32950 ft | 475 kts | 128° |
| 2026-04-25 16:10 | 51.17126 | -0.87062 | 33516 ft | 471 kts | 128° |
| 2026-04-25 16:10 | 51.15151 | -0.82902 | 33961 ft | 470 kts | 129° |
| 2026-04-25 16:10 | 51.13176 | -0.78755 | 34331 ft | 470 kts | 129° |
| 2026-04-25 16:11 | 51.11197 | -0.74609 | 34665 ft | 470 kts | 129° |
| 2026-04-25 16:11 | 51.09244 | -0.70523 | 35003 ft | 470 kts | 129° |
| 2026-04-25 16:11 | 51.07264 | -0.66392 | 35343 ft | 469 kts | 129° |
| 2026-04-25 16:11 | 51.05100 | -0.62524 | 35654 ft | 467 kts | 138° |
| 2026-04-25 16:12 | 51.02602 | -0.59268 | 35985 ft | 464 kts | 148° |
| 2026-04-25 16:12 | 50.99914 | -0.56428 | 36332 ft | 462 kts | 149° |
| 2026-04-25 16:12 | 50.97215 | -0.53636 | 36651 ft | 462 kts | 149° |
| 2026-04-25 16:12 | 50.96304 | -0.52695 | 36756 ft | 463 kts | 149° |
| 2026-04-25 16:13 | 50.91845 | -0.48051 | 37286 ft | 462 kts | 148° |
| 2026-04-25 16:13 | 50.89176 | -0.45239 | 37622 ft | 462 kts | 148° |
| 2026-04-25 16:13 | 50.86491 | -0.42398 | 37922 ft | 462 kts | 148° |
| 2026-04-25 16:13 | 50.83818 | -0.39567 | 38191 ft | 462 kts | 148° |
| 2026-04-25 16:14 | 50.82049 | -0.37694 | 38394 ft | 462 kts | 148° |
| 2026-04-25 16:14 | 50.79375 | -0.34866 | 38717 ft | 461 kts | 148° |
| 2026-04-25 16:14 | 50.76711 | -0.32054 | 38993 ft | 461 kts | 148° |
| 2026-04-25 16:14 | 50.74047 | -0.29247 | 39203 ft | 461 kts | 148° |
| 2026-04-25 16:15 | 50.71378 | -0.26440 | 39401 ft | 461 kts | 148° |
| 2026-04-25 16:15 | 50.68710 | -0.23638 | 39615 ft | 461 kts | 148° |
| 2026-04-25 16:15 | 50.66038 | -0.20837 | 39837 ft | 461 kts | 148° |
| 2026-04-25 16:15 | 50.63365 | -0.18039 | 40031 ft | 461 kts | 148° |
| 2026-04-25 16:16 | 50.60726 | -0.15278 | 40204 ft | 461 kts | 148° |
| 2026-04-25 16:16 | 50.58049 | -0.12482 | 40419 ft | 461 kts | 148° |
| 2026-04-25 16:16 | 50.55378 | -0.09694 | 40628 ft | 461 kts | 148° |
| 2026-04-25 16:16 | 50.52701 | -0.06904 | 40825 ft | 461 kts | 148° |
| 2026-04-25 16:17 | 50.50029 | -0.04122 | 41008 ft | 461 kts | 148° |
| 2026-04-25 16:17 | 50.47360 | -0.01347 | 41183 ft | 461 kts | 148° |
| 2026-04-25 16:17 | 50.44667 | 0.01447 | 41181 ft | 464 kts | 148° |
| 2026-04-25 16:18 | 50.39244 | 0.07082 | 41200 ft | 469 kts | 148° |
| 2026-04-25 16:18 | 50.33816 | 0.12715 | 41202 ft | 471 kts | 148° |
| 2026-04-25 16:19 | 50.28353 | 0.18380 | 41195 ft | 472 kts | 148° |
| 2026-04-25 16:19 | 50.22870 | 0.24053 | 41196 ft | 472 kts | 148° |
| 2026-04-25 16:20 | 50.14651 | 0.32507 | 41191 ft | 472 kts | 149° |
| 2026-04-25 16:21 | 50.06425 | 0.40925 | 41193 ft | 471 kts | 149° |
| 2026-04-25 16:21 | 50.00979 | 0.46483 | 41196 ft | 470 kts | 149° |
| 2026-04-25 16:22 | 49.95506 | 0.52054 | 41168 ft | 469 kts | 149° |
| 2026-04-25 16:22 | 49.90040 | 0.57604 | 41181 ft | 468 kts | 149° |
| 2026-04-25 16:23 | 49.84619 | 0.63197 | 41180 ft | 469 kts | 145° |
| 2026-04-25 16:23 | 49.79521 | 0.69528 | 41188 ft | 468 kts | 142° |
| 2026-04-25 16:24 | 49.74583 | 0.75905 | 41167 ft | 461 kts | 142° |
| 2026-04-25 16:24 | 49.69643 | 0.82177 | 41166 ft | 457 kts | 143° |
| 2026-04-25 16:25 | 49.64710 | 0.88349 | 41172 ft | 455 kts | 143° |
| 2026-04-25 16:25 | 49.59795 | 0.94470 | 41163 ft | 454 kts | 143° |
| 2026-04-25 16:26 | 49.54875 | 1.00583 | 41160 ft | 454 kts | 143° |
| 2026-04-25 16:26 | 49.49938 | 1.06706 | 41160 ft | 455 kts | 143° |
| 2026-04-25 16:27 | 49.45032 | 1.12776 | 41159 ft | 456 kts | 143° |
| 2026-04-25 16:27 | 49.40073 | 1.18892 | 41161 ft | 458 kts | 143° |
| 2026-04-25 16:28 | 49.35088 | 1.25024 | 41162 ft | 459 kts | 143° |
| 2026-04-25 16:28 | 49.30095 | 1.31150 | 41156 ft | 460 kts | 143° |
| 2026-04-25 16:29 | 49.25083 | 1.37288 | 41151 ft | 461 kts | 143° |
| 2026-04-25 16:29 | 49.20057 | 1.43426 | 41149 ft | 462 kts | 143° |
| 2026-04-25 16:30 | 49.15054 | 1.49521 | 41147 ft | 463 kts | 143° |
| 2026-04-25 16:30 | 49.10008 | 1.55650 | 41144 ft | 463 kts | 143° |
| 2026-04-25 16:31 | 49.04967 | 1.61759 | 41140 ft | 463 kts | 143° |
| 2026-04-25 16:31 | 48.99923 | 1.67854 | 41137 ft | 462 kts | 143° |
| 2026-04-25 16:32 | 48.94877 | 1.73935 | 41129 ft | 461 kts | 143° |
| 2026-04-25 16:32 | 48.89844 | 1.79984 | 41130 ft | 460 kts | 144° |
| 2026-04-25 16:33 | 48.84825 | 1.86002 | 41128 ft | 460 kts | 144° |
| 2026-04-25 16:33 | 48.79830 | 1.91974 | 41132 ft | 459 kts | 144° |
| 2026-04-25 16:34 | 48.74813 | 1.97957 | 41126 ft | 459 kts | 144° |
| 2026-04-25 16:34 | 48.69797 | 2.03925 | 41130 ft | 458 kts | 144° |
| 2026-04-25 16:35 | 48.64769 | 2.09891 | 41130 ft | 458 kts | 144° |
| 2026-04-25 16:35 | 48.59751 | 2.15831 | 41125 ft | 458 kts | 144° |
| 2026-04-25 16:36 | 48.54892 | 2.21962 | 41122 ft | 460 kts | 138° |
| 2026-04-25 16:36 | 48.50402 | 2.28847 | 41112 ft | 461 kts | 136° |
| 2026-04-25 16:37 | 48.45929 | 2.35778 | 41117 ft | 461 kts | 136° |
| 2026-04-25 16:37 | 48.41412 | 2.42633 | 41114 ft | 461 kts | 137° |
| 2026-04-25 16:38 | 48.36866 | 2.49465 | 41115 ft | 461 kts | 137° |
| 2026-04-25 16:38 | 48.32316 | 2.56289 | 41112 ft | 462 kts | 137° |
| 2026-04-25 16:39 | 48.27576 | 2.62656 | 41110 ft | 458 kts | 148° |
| 2026-04-25 16:39 | 48.21950 | 2.66961 | 41121 ft | 454 kts | 158° |
| 2026-04-25 16:40 | 48.16429 | 2.71634 | 41111 ft | 457 kts | 150° |
| 2026-04-25 16:40 | 48.11050 | 2.76758 | 41110 ft | 458 kts | 150° |
| 2026-04-25 16:41 | 48.05671 | 2.81872 | 41114 ft | 458 kts | 150° |
| 2026-04-25 16:41 | 47.97561 | 2.89429 | 41106 ft | 458 kts | 150° |
| 2026-04-25 16:42 | 47.92173 | 2.94402 | 41111 ft | 458 kts | 150° |
| 2026-04-25 16:42 | 47.86764 | 2.99380 | 41106 ft | 458 kts | 150° |
| 2026-04-25 16:43 | 47.81329 | 3.04372 | 41107 ft | 458 kts | 150° |
| 2026-04-25 16:43 | 47.75896 | 3.09350 | 41097 ft | 458 kts | 151° |
| 2026-04-25 16:44 | 47.70471 | 3.14310 | 41107 ft | 458 kts | 151° |
| 2026-04-25 16:44 | 47.65038 | 3.19264 | 41105 ft | 457 kts | 151° |
| 2026-04-25 16:45 | 47.59625 | 3.24188 | 41107 ft | 457 kts | 151° |
| 2026-04-25 16:45 | 47.54183 | 3.29126 | 41101 ft | 457 kts | 151° |
| 2026-04-25 16:46 | 47.48796 | 3.34002 | 41099 ft | 457 kts | 151° |
| 2026-04-25 16:46 | 47.45177 | 3.37271 | 41098 ft | 457 kts | 151° |
| 2026-04-25 16:47 | 47.37938 | 3.43795 | 41109 ft | 457 kts | 151° |
| 2026-04-25 16:47 | 47.32515 | 3.48668 | 41092 ft | 457 kts | 151° |
| 2026-04-25 16:48 | 47.27069 | 3.53549 | 41104 ft | 457 kts | 151° |
| 2026-04-25 16:48 | 47.21631 | 3.58412 | 41096 ft | 458 kts | 151° |
| 2026-04-25 16:49 | 47.16192 | 3.63264 | 41100 ft | 458 kts | 151° |
| 2026-04-25 16:49 | 47.10733 | 3.68122 | 41098 ft | 458 kts | 151° |
| 2026-04-25 16:50 | 47.05276 | 3.72966 | 41102 ft | 458 kts | 151° |
| 2026-04-25 16:50 | 46.99853 | 3.77769 | 41098 ft | 458 kts | 151° |
| 2026-04-25 16:51 | 46.94391 | 3.82594 | 41096 ft | 458 kts | 151° |
| 2026-04-25 16:51 | 46.90744 | 3.85809 | 41096 ft | 458 kts | 151° |
| 2026-04-25 16:52 | 46.83466 | 3.92211 | 41103 ft | 458 kts | 151° |
| 2026-04-25 16:52 | 46.77995 | 3.97010 | 41097 ft | 458 kts | 151° |
| 2026-04-25 16:53 | 46.69800 | 4.04176 | 41098 ft | 458 kts | 151° |
| 2026-04-25 16:54 | 46.64337 | 4.08939 | 41095 ft | 458 kts | 151° |
| 2026-04-25 16:54 | 46.58879 | 4.13688 | 41100 ft | 458 kts | 151° |
| 2026-04-25 16:55 | 46.53441 | 4.18406 | 41103 ft | 458 kts | 151° |
| 2026-04-25 16:55 | 46.47965 | 4.23147 | 41107 ft | 458 kts | 151° |
| 2026-04-25 16:56 | 46.42487 | 4.27879 | 41095 ft | 459 kts | 151° |
| 2026-04-25 16:56 | 46.36995 | 4.32614 | 41091 ft | 459 kts | 151° |
| 2026-04-25 16:57 | 46.31505 | 4.37334 | 41097 ft | 459 kts | 151° |
| 2026-04-25 16:57 | 46.25801 | 4.41191 | 41091 ft | 454 kts | 167° |
| 2026-04-25 16:58 | 46.19688 | 4.43513 | 41093 ft | 455 kts | 168° |
| 2026-04-25 16:58 | 46.13504 | 4.45795 | 41124 ft | 461 kts | 168° |
| 2026-04-25 16:59 | 46.07262 | 4.48153 | 41165 ft | 465 kts | 167° |
| 2026-04-25 16:59 | 46.01000 | 4.50551 | 41244 ft | 467 kts | 167° |
| 2026-04-25 17:00 | 45.94713 | 4.52965 | 41104 ft | 464 kts | 167° |
| 2026-04-25 17:00 | 45.88559 | 4.55324 | 41089 ft | 454 kts | 167° |
| 2026-04-25 17:01 | 45.82504 | 4.57634 | 41078 ft | 452 kts | 167° |
| 2026-04-25 17:01 | 45.76423 | 4.59947 | 41084 ft | 451 kts | 167° |
| 2026-04-25 17:02 | 45.71360 | 4.61869 | 41081 ft | 452 kts | 167° |
| 2026-04-25 17:02 | 45.65285 | 4.64171 | 41085 ft | 451 kts | 167° |
| 2026-04-25 17:03 | 45.59203 | 4.66472 | 41089 ft | 451 kts | 167° |
| 2026-04-25 17:03 | 45.53162 | 4.68751 | 41078 ft | 452 kts | 167° |
| 2026-04-25 17:04 | 45.47075 | 4.71043 | 41071 ft | 453 kts | 167° |
| 2026-04-25 17:04 | 45.40983 | 4.73331 | 41076 ft | 453 kts | 167° |
| 2026-04-25 17:05 | 45.34869 | 4.75623 | 41070 ft | 454 kts | 167° |
| 2026-04-25 17:05 | 45.25686 | 4.79055 | 41053 ft | 455 kts | 167° |
| 2026-04-25 17:06 | 45.19554 | 4.81340 | 41056 ft | 456 kts | 167° |
| 2026-04-25 17:06 | 45.13450 | 4.83611 | 41056 ft | 456 kts | 167° |
| 2026-04-25 17:07 | 45.07305 | 4.85892 | 41051 ft | 457 kts | 168° |
| 2026-04-25 17:07 | 45.01156 | 4.88168 | 41044 ft | 457 kts | 168° |
| 2026-04-25 17:08 | 44.95005 | 4.90440 | 41053 ft | 457 kts | 168° |
| 2026-04-25 17:08 | 44.88858 | 4.92706 | 41043 ft | 456 kts | 167° |
| 2026-04-25 17:09 | 44.82707 | 4.94969 | 41048 ft | 455 kts | 167° |
| 2026-04-25 17:09 | 44.79618 | 4.96102 | 40622 ft | 462 kts | 168° |
| 2026-04-25 17:09 | 44.76518 | 4.97239 | 40088 ft | 460 kts | 168° |
| 2026-04-25 17:10 | 44.73424 | 4.98373 | 39479 ft | 459 kts | 168° |
| 2026-04-25 17:10 | 44.70334 | 4.99505 | 38871 ft | 457 kts | 168° |
| 2026-04-25 17:10 | 44.67257 | 5.00630 | 38119 ft | 457 kts | 168° |
| 2026-04-25 17:10 | 44.64175 | 5.01756 | 37422 ft | 455 kts | 168° |
| 2026-04-25 17:11 | 44.61155 | 5.02858 | 36769 ft | 453 kts | 168° |
| 2026-04-25 17:11 | 44.58108 | 5.03970 | 36094 ft | 452 kts | 168° |
| 2026-04-25 17:11 | 44.55060 | 5.05079 | 35364 ft | 453 kts | 168° |
| 2026-04-25 17:11 | 44.52011 | 5.06205 | 34619 ft | 455 kts | 165° |
| 2026-04-25 17:12 | 44.49130 | 5.08115 | 33870 ft | 461 kts | 146° |
| 2026-04-25 17:12 | 44.46782 | 5.11095 | 33579 ft | 453 kts | 133° |
| 2026-04-25 17:12 | 44.44711 | 5.14467 | 33239 ft | 461 kts | 131° |
| 2026-04-25 17:12 | 44.42636 | 5.17941 | 32879 ft | 468 kts | 131° |
| 2026-04-25 17:13 | 44.40521 | 5.21409 | 32519 ft | 467 kts | 132° |
| 2026-04-25 17:13 | 44.39106 | 5.23677 | 32280 ft | 463 kts | 132° |
| 2026-04-25 17:13 | 44.36221 | 5.28019 | 31717 ft | 461 kts | 139° |
| 2026-04-25 17:13 | 44.33700 | 5.30883 | 31190 ft | 470 kts | 144° |
| 2026-04-25 17:14 | 44.31073 | 5.33617 | 30658 ft | 471 kts | 145° |
| 2026-04-25 17:14 | 44.28437 | 5.36332 | 30095 ft | 469 kts | 144° |
| 2026-04-25 17:14 | 44.25849 | 5.39048 | 29477 ft | 460 kts | 144° |
| 2026-04-25 17:14 | 44.23338 | 5.41740 | 28933 ft | 452 kts | 143° |
| 2026-04-25 17:15 | 44.20848 | 5.44444 | 28409 ft | 454 kts | 143° |
| 2026-04-25 17:15 | 44.18358 | 5.47155 | 27877 ft | 455 kts | 143° |
| 2026-04-25 17:15 | 44.15869 | 5.49859 | 27327 ft | 452 kts | 143° |
| 2026-04-25 17:15 | 44.13394 | 5.52541 | 26826 ft | 448 kts | 143° |
| 2026-04-25 17:16 | 44.10947 | 5.55188 | 26285 ft | 442 kts | 143° |
| 2026-04-25 17:16 | 44.08561 | 5.57767 | 25793 ft | 441 kts | 143° |
| 2026-04-25 17:16 | 44.06131 | 5.60390 | 25293 ft | 439 kts | 142° |
| 2026-04-25 17:16 | 44.03735 | 5.62975 | 24784 ft | 433 kts | 142° |
| 2026-04-25 17:17 | 44.01365 | 5.65530 | 24288 ft | 427 kts | 142° |
| 2026-04-25 17:17 | 43.99014 | 5.68062 | 23791 ft | 427 kts | 142° |
| 2026-04-25 17:17 | 43.96658 | 5.70597 | 23232 ft | 429 kts | 142° |
| 2026-04-25 17:17 | 43.94319 | 5.73111 | 22690 ft | 422 kts | 142° |
| 2026-04-25 17:18 | 43.92019 | 5.75581 | 22189 ft | 416 kts | 142° |
| 2026-04-25 17:18 | 43.89748 | 5.78019 | 21711 ft | 410 kts | 142° |
| 2026-04-25 17:18 | 43.87502 | 5.80425 | 21229 ft | 406 kts | 142° |
| 2026-04-25 17:18 | 43.85279 | 5.82804 | 20761 ft | 402 kts | 142° |
| 2026-04-25 17:19 | 43.83065 | 5.85168 | 20306 ft | 400 kts | 142° |
| 2026-04-25 17:19 | 43.80850 | 5.87530 | 19855 ft | 403 kts | 142° |
| 2026-04-25 17:19 | 43.78617 | 5.89908 | 19388 ft | 405 kts | 142° |
| 2026-04-25 17:19 | 43.76418 | 5.92249 | 18909 ft | 402 kts | 142° |
| 2026-04-25 17:20 | 43.74204 | 5.94605 | 18460 ft | 399 kts | 142° |
| 2026-04-25 17:20 | 43.72009 | 5.96938 | 17939 ft | 397 kts | 142° |
| 2026-04-25 17:20 | 43.69822 | 5.99260 | 17443 ft | 394 kts | 141° |
| 2026-04-25 17:20 | 43.67713 | 6.01647 | 16929 ft | 390 kts | 134° |
| 2026-04-25 17:21 | 43.65997 | 6.04515 | 16423 ft | 386 kts | 123° |
| 2026-04-25 17:21 | 43.64513 | 6.07576 | 15978 ft | 382 kts | 122° |
| 2026-04-25 17:21 | 43.63056 | 6.10631 | 15521 ft | 377 kts | 122° |
| 2026-04-25 17:21 | 43.61619 | 6.13637 | 15077 ft | 371 kts | 122° |
| 2026-04-25 17:22 | 43.60220 | 6.16539 | 14645 ft | 366 kts | 122° |
| 2026-04-25 17:22 | 43.59268 | 6.18501 | 14362 ft | 364 kts | 122° |
| 2026-04-25 17:22 | 43.57405 | 6.22318 | 13802 ft | 361 kts | 123° |
| 2026-04-25 17:22 | 43.55998 | 6.25187 | 13332 ft | 358 kts | 123° |
| 2026-04-25 17:23 | 43.54607 | 6.28016 | 12892 ft | 356 kts | 123° |
| 2026-04-25 17:23 | 43.53223 | 6.30826 | 12458 ft | 353 kts | 123° |
| 2026-04-25 17:23 | 43.51849 | 6.33611 | 12044 ft | 350 kts | 123° |
| 2026-04-25 17:23 | 43.50482 | 6.36380 | 11629 ft | 347 kts | 123° |
| 2026-04-25 17:24 | 43.49137 | 6.39103 | 11221 ft | 341 kts | 123° |
| 2026-04-25 17:24 | 43.47806 | 6.41794 | 10815 ft | 336 kts | 123° |
| 2026-04-25 17:24 | 43.46501 | 6.44431 | 10433 ft | 332 kts | 123° |
| 2026-04-25 17:24 | 43.45222 | 6.47015 | 10052 ft | 327 kts | 124° |
| 2026-04-25 17:25 | 43.43960 | 6.49564 | 9948 ft | 314 kts | 124° |
| 2026-04-25 17:25 | 43.42757 | 6.51990 | 9915 ft | 299 kts | 124° |
| 2026-04-25 17:25 | 43.41605 | 6.54308 | 9650 ft | 290 kts | 124° |
| 2026-04-25 17:25 | 43.41576 | 6.54366 | 9640 ft | 290 kts | 124° |
| 2026-04-25 17:26 | 43.41023 | 6.55479 | 9441 ft | 290 kts | 124° |
| 2026-04-25 17:26 | 43.39895 | 6.57743 | 9124 ft | 290 kts | 124° |
| 2026-04-25 17:26 | 43.39011 | 6.60191 | 8804 ft | 287 kts | 100° |
| 2026-04-25 17:26 | 43.39015 | 6.62883 | 8569 ft | 279 kts | 77° |
| 2026-04-25 17:27 | 43.39534 | 6.65449 | 8221 ft | 277 kts | 68° |
| 2026-04-25 17:27 | 43.40164 | 6.67947 | 7916 ft | 275 kts | 68° |
| 2026-04-25 17:27 | 43.40803 | 6.70419 | 7640 ft | 273 kts | 69° |
| 2026-04-25 17:27 | 43.41017 | 6.71253 | 7552 ft | 272 kts | 66° |
| 2026-04-25 17:28 | 43.42053 | 6.75336 | 7026 ft | 271 kts | 69° |
| 2026-04-25 17:28 | 43.42663 | 6.77782 | 6795 ft | 267 kts | 68° |
| 2026-04-25 17:28 | 43.43252 | 6.80161 | 6694 ft | 259 kts | 68° |
| 2026-04-25 17:28 | 43.43818 | 6.82463 | 6622 ft | 249 kts | 68° |
| 2026-04-25 17:29 | 43.44364 | 6.84689 | 6513 ft | 242 kts | 68° |
| 2026-04-25 17:29 | 43.44895 | 6.86855 | 6193 ft | 242 kts | 68° |
| 2026-04-25 17:29 | 43.45437 | 6.89068 | 6065 ft | 236 kts | 69° |
| 2026-04-25 17:29 | 43.45943 | 6.91144 | 6004 ft | 228 kts | 69° |
| 2026-04-25 17:30 | 43.46445 | 6.93203 | 5913 ft | 220 kts | 68° |
| 2026-04-25 17:30 | 43.46930 | 6.95154 | 5731 ft | 217 kts | 64° |
| 2026-04-25 17:30 | 43.47837 | 6.96736 | 5433 ft | 211 kts | 30° |
| 2026-04-25 17:30 | 43.49023 | 6.97913 | 5266 ft | 209 kts | 43° |
| 2026-04-25 17:31 | 43.49943 | 6.99382 | 5224 ft | 196 kts | 43° |
| 2026-04-25 17:31 | 43.50898 | 7.00697 | 5019 ft | 193 kts | 40° |
| 2026-04-25 17:31 | 43.51864 | 7.02002 | 4633 ft | 198 kts | 41° |
| 2026-04-25 17:31 | 43.52855 | 7.03360 | 4160 ft | 203 kts | 43° |
| 2026-04-25 17:32 | 43.53866 | 7.04758 | 3663 ft | 207 kts | 44° |
| 2026-04-25 17:32 | 43.54865 | 7.06142 | 3204 ft | 204 kts | 45° |
| 2026-04-25 17:32 | 43.55846 | 7.07500 | 2787 ft | 196 kts | 45° |
| 2026-04-25 17:32 | 43.56788 | 7.08803 | 2396 ft | 188 kts | 46° |
| 2026-04-25 17:33 | 43.57681 | 7.10039 | 2131 ft | 175 kts | 45° |
| 2026-04-25 17:33 | 43.58507 | 7.11182 | 1897 ft | 162 kts | 45° |
| 2026-04-25 17:33 | 43.59262 | 7.12225 | 1713 ft | 148 kts | 45° |
| 2026-04-25 17:33 | 43.59975 | 7.13210 | 1486 ft | 143 kts | 45° |
| 2026-04-25 17:34 | 43.60668 | 7.14176 | 1304 ft | 139 kts | 47° |
| 2026-04-25 17:34 | 43.61345 | 7.15152 | 1102 ft | 140 kts | 46° |
| 2026-04-25 17:34 | 43.62030 | 7.16076 | 964 ft | 134 kts | 45° |
| 2026-04-25 17:34 | 43.62694 | 7.16970 | 806 ft | 136 kts | 45° |
| 2026-04-25 17:35 | 43.63377 | 7.17910 | 586 ft | 139 kts | 47° |
| 2026-04-25 17:35 | 43.64054 | 7.18859 | 417 ft | 141 kts | 47° |
| 2026-04-25 17:35 | 43.64758 | 7.19815 | 243 ft | 142 kts | 47° |
| 2026-04-25 17:35 | 43.65458 | 7.20773 | 56 ft | 138 kts | 46° |
| 2026-04-25 17:36 | 43.66079 | 7.21633 | 21 ft | 113 kts | 47° |
| 2026-04-25 17:36 | 43.66527 | 7.22259 | 21 ft | 58 kts | 45° |
| 2026-04-25 17:36 | 43.66660 | 7.22441 | 20 ft | 17 kts | 45° |
| 2026-04-25 17:36 | 43.66734 | 7.22488 | 20 ft | 1 kts | 330° |
| 2026-04-25 17:37 | 43.66749 | 7.22471 | 22 ft | 5 kts | 322° |
| 2026-04-25 17:37 | 43.66790 | 7.22426 | 20 ft | 9 kts | 322° |
| 2026-04-25 17:37 | 43.66813 | 7.22355 | 21 ft | 8 kts | 262° |
| 2026-04-25 17:37 | 43.66784 | 7.22283 | 22 ft | 9 kts | 231° |
| 2026-04-25 17:38 | 43.66736 | 7.22223 | 21 ft | 10 kts | 223° |
| 2026-04-25 17:38 | 43.66718 | 7.22200 | 22 ft | 12 kts | 223° |
| 2026-04-25 17:38 | 43.66603 | 7.22039 | 21 ft | 15 kts | 224° |
| 2026-04-25 17:38 | 43.66531 | 7.21944 | 21 ft | 14 kts | 224° |
| 2026-04-25 17:39 | 43.66463 | 7.21852 | 21 ft | 13 kts | 226° |
| 2026-04-25 17:39 | 43.66398 | 7.21760 | 21 ft | 14 kts | 224° |
| 2026-04-25 17:39 | 43.66314 | 7.21646 | 21 ft | 20 kts | 224° |
| 2026-04-25 17:39 | 43.66201 | 7.21491 | 21 ft | 26 kts | 225° |
| 2026-04-25 17:40 | 43.66057 | 7.21293 | 21 ft | 31 kts | 224° |
| 2026-04-25 17:40 | 43.65960 | 7.21126 | 21 ft | 16 kts | 274° |
| 2026-04-25 17:40 | 43.66029 | 7.21038 | 21 ft | 12 kts | 289° |
| 2026-04-25 17:40 | 43.65991 | 7.20941 | 21 ft | 12 kts | 230° |
| 2026-04-25 17:41 | 43.65973 | 7.20856 | 21 ft | 9 kts | 303° |
| 2026-04-25 17:41 | 43.66029 | 7.20814 | 21 ft | 9 kts | 350° |
| 2026-04-25 17:41 | 43.66095 | 7.20800 | 21 ft | 10 kts | 351° |
| 2026-04-25 17:41 | 43.66167 | 7.20785 | 21 ft | 11 kts | 351° |
| 2026-04-25 17:42 | 43.66243 | 7.20768 | 21 ft | 11 kts | 351° |
| 2026-04-25 17:42 | 43.66298 | 7.20722 | 21 ft | 10 kts | 284° |
| 2026-04-25 17:42 | 43.66308 | 7.20634 | 21 ft | 8 kts | 268° |
| 2026-04-25 17:42 | 43.66287 | 7.20579 | 21 ft | 1 kts | 226° |
| 2026-04-25 17:43 | 43.66278 | 7.20566 | 21 ft | 2 kts | 226° |
| 2026-04-25 17:43 | 43.66271 | 7.20555 | 21 ft | 0 kts | 227° |